• Join FlightAware (Why Join?)
  • Login
  • US Flag 
08:50PM EST


 

Airport Tracker/Info


-or-


 

Live Flight TrackerFlight Track Log ✈ N991BB ✈ 28-Jan-2014 ✈ 7S1 - KSMF

Flight Track Log - Related Links

Times and Time Zones

All times are in EST time to prevent confusion due to time zone crossing. See the N991BB flight status page for this flight to view local times or setup timezone preferences in your user account.

Time Position Orientation Groundspeed Altitude Reporting Facility
EST Latitude Longitude Course Direction KTS MPH feet Rate Location/Type
04:52PM 45.4300 -112.4389 230° Southwest 155 178 11,700  Level Salt Lake Center
04:53PM 45.3922 -112.5000 229° Southwest 193 222 14,300 2,293 Climbing Salt Lake Center
04:54PM 45.3583 -112.5586 231° Southwest 190 219 16,400 1,951 Climbing Salt Lake Center
04:55PM 45.3242 -112.6133 228° Southwest 194 223 18,300 1,951 Climbing Salt Lake Center
04:56PM 45.2925 -112.6814 237° Southwest 188 216 20,400 1,756 Climbing Salt Lake Center
04:57PM 45.2606 -112.7472 235° Southwest 210 242 21,900 1,366 Climbing Salt Lake Center
04:58PM 45.2017 -112.8083 230° Southwest  Level FlightAware Approximate
04:59PM 45.2283 -112.8147 236° Southwest 217 250 23,200  Level Salt Lake Center
05:00PM 45.1875 -112.9006 236° Southwest 238 274 24,800 1,512 Climbing Salt Lake Center
05:01PM 45.1503 -112.9794 236° Southwest 252 290 26,300 1,463 Climbing Salt Lake Center
05:02PM 45.1056 -113.0700 235° Southwest 252 290 27,800 1,268 Climbing Salt Lake Center
05:03PM 45.0692 -113.1492 237° Southwest 251 289 28,900 1,122 Climbing Salt Lake Center
05:04PM 45.0297 -113.2283 235° Southwest 256 295 30,100 1,317 Climbing Salt Lake Center
05:05PM 44.9842 -113.3194 235° Southwest 249 287 31,600 927 Climbing Salt Lake Center
05:06PM 44.9475 -113.3997 237° Southwest 257 296 32,000 1,317 Climbing Salt Lake Center
05:07PM 44.9033 -113.4839 233° Southwest 223 257 34,300 1,512 Climbing Salt Lake Center
05:08PM 44.8711 -113.5531 237° Southwest 219 252 35,100 780 Climbing Salt Lake Center
05:09PM 44.8314 -113.6344 235° Southwest 223 257 35,900 439 Climbing Salt Lake Center
05:10PM 44.7956 -113.7089 236° Southwest 233 268 36,000 49 Climbing Salt Lake Center
05:11PM 44.7564 -113.7911 236° Southwest 252 290 36,000  Level Salt Lake Center
05:12PM 44.7056 -113.8928 235° Southwest 275 316 36,000  Level Salt Lake Center
05:13PM 44.6564 -113.9864 234° Southwest 292 336 36,000  Level Salt Lake Center
05:14PM 44.6100 -114.0781 235° Southwest 288 331 36,000  Level Salt Lake Center
05:15PM 44.5653 -114.1722 236° Southwest 289 333 36,000  Level Salt Lake Center
05:16PM 44.5175 -114.2642 234° Southwest 292 336 36,000  Level Salt Lake Center
05:17PM 44.4711 -114.3589 236° Southwest 294 338 36,000  Level Salt Lake Center
05:18PM 44.4144 -114.4711 235° Southwest 294 338 36,000  Level Salt Lake Center
05:19PM 44.3681 -114.5647 235° Southwest 294 338 36,000  Level Salt Lake Center
05:20PM 44.3200 -114.6564 234° Southwest 292 336 36,000  Level Salt Lake Center
05:21PM 44.2719 -114.7494 234° Southwest 295 339 36,000  Level Salt Lake Center
05:22PM 44.2225 -114.8439 234° Southwest 301 346 36,000  Level Salt Lake Center
05:23PM 44.1769 -114.9339 235° Southwest 288 331 36,000  Level Salt Lake Center
05:24PM 44.1297 -115.0242 234° Southwest 288 331 36,000  Level Salt Lake Center
05:25PM 44.0842 -115.1142 235° Southwest 286 329 36,000  Level Salt Lake Center
05:26PM 44.0286 -115.2208 234° Southwest 285 328 36,000  Level Salt Lake Center
05:27PM 43.9831 -115.3100 235° Southwest 283 326 36,000  Level Salt Lake Center
05:28PM 43.9372 -115.3983 234° Southwest 281 323 36,000  Level Salt Lake Center
05:29PM 43.8900 -115.4867 233° Southwest 285 328 36,000  Level Salt Lake Center
05:30PM 43.8428 -115.5769 234° Southwest 287 330 36,000  Level Salt Lake Center
05:31PM 43.7953 -115.6678 234° Southwest 291 335 36,000  Level Salt Lake Center
05:32PM 43.7475 -115.7597 234° Southwest 294 338 36,000  Level Salt Lake Center
05:33PM 43.6986 -115.8506 233° Southwest 294 338 36,000  Level Salt Lake Center
05:34PM 43.6422 -115.9578 234° Southwest 289 333 36,000  Level Salt Lake Center
05:35PM 43.5950 -116.0472 234° Southwest 288 331 36,000  Level Salt Lake Center
05:37PM 43.5475 -116.1347 233° Southwest 286 329 36,000  Level Salt Lake Center
05:38PM 43.5003 -116.2222 233° Southwest 285 328 36,000  Level Salt Lake Center
05:39PM 43.4531 -116.3097 233° Southwest 285 328 36,000  Level Salt Lake Center
05:40PM 43.4064 -116.3958 233° Southwest 281 323 36,000  Level Salt Lake Center
05:41PM 43.3597 -116.4833 234° Southwest 283 326 36,000  Level Salt Lake Center
05:42PM 43.3036 -116.5858 233° Southwest 281 323 36,000  Level Salt Lake Center
05:43PM 43.2561 -116.6722 233° Southwest 283 326 36,000  Level Salt Lake Center
05:44PM 43.2083 -116.7592 233° Southwest 286 329 36,000  Level Salt Lake Center
05:45PM 43.1611 -116.8447 233° Southwest 283 326 36,000  Level Salt Lake Center
05:46PM 43.1150 -116.9300 233° Southwest 280 322 36,000  Level Salt Lake Center
05:47PM 43.0683 -117.0144 233° Southwest 280 322 36,000  Level Salt Lake Center
05:48PM 43.0214 -117.0989 233° Southwest 279 321 36,000  Level Salt Lake Center
05:49PM 42.9656 -117.1997 233° Southwest 278 320 36,000  Level Salt Lake Center
05:50PM 42.9183 -117.2847 233° Southwest 281 323 36,000  Level Salt Lake Center
05:51PM 42.8697 -117.3706 232° Southwest 285 328 36,000  Level Salt Lake Center
05:52PM 42.8219 -117.4564 233° Southwest 285 328 36,000  Level Salt Lake Center
05:53PM 42.7742 -117.5419 233° Southwest 285 328 36,000  Level Salt Lake Center
05:54PM 42.7267 -117.6269 233° Southwest 284 327 36,000  Level Salt Lake Center
05:55PM 42.6778 -117.7122 232° Southwest 286 329 36,000  Level Salt Lake Center
05:56PM 42.6306 -117.7961 233° Southwest 282 325 36,000  Level Salt Lake Center
05:57PM 42.5672 -117.8936 229° Southwest 289 333 36,000  Level Salt Lake Center
05:58PM 42.4964 -117.9642 216° Southwest 312 359 36,000  Level Salt Lake Center
05:59PM 42.4278 -118.0347 217° Southwest 312 359 36,000  Level Salt Lake Center
06:00PM 42.3600 -118.1044 217° Southwest 308 354 36,000  Level Salt Lake Center
06:01PM 42.2878 -118.1794 218° Southwest 310 357 36,000  Level Salt Lake Center
06:02PM 42.2217 -118.2458 217° Southwest 309 356 36,000  Level Salt Lake Center
06:03PM 42.1447 -118.3233 217° Southwest 310 357 36,000  Level Salt Lake Center
06:04PM 42.0789 -118.3900 217° Southwest 310 357 36,000  Level Salt Lake Center
06:05PM 42.0025 -118.4683 217° Southwest 308 354 36,000  Level Salt Lake Center
06:06PM 41.9361 -118.5333 216° Southwest 309 356 36,000  Level Salt Lake Center
06:07PM 41.8694 -118.6003 217° Southwest 310 357 36,000  Level Salt Lake Center
06:08PM 41.7917 -118.6778 217° Southwest 311 358 36,000  Level Salt Lake Center
06:09PM 41.7256 -118.7436 217° Southwest 311 358 36,000  Level Salt Lake Center
06:10PM 41.6481 -118.8208 217° Southwest 310 357 36,000  Level Salt Lake Center
06:11PM 41.5811 -118.8872 217° Southwest 311 358 36,000  Level Salt Lake Center
06:12PM 41.5067 -118.9419 209° Southwest 327 376 36,000  Level Salt Lake Center
06:13PM 41.4114 -118.9981 204° Southwest 336 387 36,000  Level Salt Lake Center
06:15PM 41.3286 -119.0464 204° Southwest 337 388 36,000  Level Salt Lake Center
06:16PM 41.2333 -119.1019 204° Southwest 335 386 36,000  Level Salt Lake Center
06:17PM 41.1500 -119.1514 204° Southwest 339 390 36,000  Level Salt Lake Center
06:18PM 41.0672 -119.1997 204° Southwest 339 390 36,000  Level Salt Lake Center
06:19PM 40.9683 -119.2561 203° Southwest 343 395 36,000  Level Salt Lake Center
06:20PM 40.8836 -119.3061 204° Southwest 346 398 36,000  Level Salt Lake Center
06:21PM 40.7856 -119.3631 204° Southwest 347 399 36,000  Level Salt Lake Center
06:22PM 40.7047 -119.4092 203° Southwest 346 398 36,000  Level Salt Lake Center
06:23PM 40.6156 -119.4606 204° Southwest 348 400 36,000  Level Salt Lake Center
06:24PM 40.5264 -119.5128 204° Southwest 349 402 36,000  Level Salt Lake Center
06:25PM 40.4361 -119.5644 204° Southwest 352 405 36,000  Level Salt Lake Center
06:26PM 40.3289 -119.6258 204° Southwest 351 404 36,000  Level Salt Lake Center
06:27PM 40.2389 -119.6772 204° Southwest 352 405 36,000  Level Salt Lake Center
06:28PM 40.1483 -119.7292 204° Southwest 355 409 36,000  Level Salt Lake Center
06:29PM 40.0575 -119.7800 203° Southwest 356 410 36,000 -411 Level Salt Lake Center
06:30PM 39.9308 -119.8519 204° Southwest 358 412 35,000 -986 Descending Oakland Center
06:31PM 39.8372 -119.9044 203° Southwest 364 419 33,600 -1,377 Descending Oakland Center
06:32PM 39.7461 -119.9564 204° Southwest 360 414 32,200 -1,415 Descending Oakland Center
06:33PM 39.6542 -120.0083 204° Southwest 362 417 30,700 -1,317 Descending Oakland Center
06:34PM 39.5594 -120.0606 203° Southwest 368 423 29,500 -1,525 Descending Oakland Center
06:35PM 39.4472 -120.1236 203° Southwest 368 423 27,600 -1,721 Descending Oakland Center
06:36PM 39.3583 -120.1717 203° Southwest 375 432 26,000 -1,672 Descending Oakland Center
06:37PM 39.2617 -120.2247 203° Southwest 379 436 24,200 -1,805 Descending Oakland Center
06:38PM 39.1714 -120.2736 203° Southwest 357 411 22,300 -1,756 Descending Oakland Center
06:39PM 39.1489 -120.3619 252° West 285 328 20,600 -1,574 Descending Oakland Center
06:40PM 39.1306 -120.4658 257° West 300 345 19,100 -1,475 Descending Oakland Center
06:41PM 39.0981 -120.5892 251° West 302 348 17,600 -1,574 Descending Oakland Center
06:42PM 39.0742 -120.6867 253° West 289 333 15,900 -1,561 Descending Oakland Center
06:44PM 39.0486 -120.7839 251° West 286 329 14,400 -1,463 Descending Oakland Center
06:45PM 39.0233 -120.8803 251° West 287 330 12,900 -1,475 Descending Oakland Center
06:46PM 38.9989 -120.9767 252° West 285 328 11,400 -1,230 Descending Oakland Center
06:47PM 38.9761 -121.0622 251° West 259 298 10,400 -800 Descending Oakland Center
06:47PM 38.9667 -121.1333 260° West 234 269 10,000 -346 Descending Northern Cal TRACON
06:48PM 38.9333 -121.2167 243° Southwest 260 299 9,800 -550 Descending Northern Cal TRACON
06:49PM 38.9167 -121.3000 256° West 254 292 8,900 -1,000 Descending Northern Cal TRACON
06:50PM 38.9167 -121.3833 270° West 258 297 7,800 -1,300 Descending Northern Cal TRACON
06:51PM 38.9000 -121.4833 258° West 262 302 6,300 -900 Descending Northern Cal TRACON
06:52PM 38.8833 -121.5667 256° West 242 278 6,000 -158 Descending Northern Cal TRACON
06:53PM 38.8667 -121.6333 252° West 225 259 6,000 -212 Level Northern Cal TRACON
06:54PM 38.8525 -121.6597 235° Southwest 228 262 5,700 -1,500 Descending Oakland Center
06:55PM 38.7878 -121.6625 182° South 238 274 3,700 -1,328 Descending Oakland Center
06:56PM 38.7275 -121.6650 182° South 226 260 3,000 -885 Descending Oakland Center
06:57PM 38.6828 -121.6628 178° South 181 208 1,900 -1,033 Descending Oakland Center
06:58PM 38.6600 -121.6331 134° Southeast 145 167 900 -780 Descending Oakland Center
06:59PM 38.6722 -121.6006 64° Northeast 124 143 300 -581 Descending Oakland Center